EJU47EW GVBA-LPPR
Flight info
| Callsign | EJU47EW |
|---|---|
| Flight time | N/A |
| Altitude | 23000 |
| Route | DIMKI1J DIMKI B623 IPERA/N0443F350 N873 ODEGI/N0439F360 N873 SAMAR DCT BEXAL DCT ODLIX DCT INBOM DCT ABLEG |
| Aircraft | A320/M-SDE2E3FGHIJ1RWXYZ/LB1 |
Departure
| Time | 2026-04-18 11:30 |
|---|---|
| Airport | Aristides Pereira International Airport (GVBA) |
Arrival
| Time | N/A |
|---|---|
| Airport | Francisco de Sá Carneiro Airport (LPPR) |
| Time | Latitude | Longitude | Altitude | Speed | Heading |
|---|---|---|---|---|---|
| 2026-04-18 11:19 | 16.13557 | -22.89111 | 51 ft | 0 kts | 286° |
| 2026-04-18 11:24 | 16.13555 | -22.89106 | 52 ft | 2 kts | 286° |
| 2026-04-18 11:25 | 16.13551 | -22.89090 | 52 ft | 2 kts | 281° |
| 2026-04-18 11:25 | 16.13548 | -22.89073 | 57 ft | 2 kts | 281° |
| 2026-04-18 11:25 | 16.13545 | -22.89057 | 53 ft | 2 kts | 281° |
| 2026-04-18 11:25 | 16.13544 | -22.89040 | 55 ft | 2 kts | 271° |
| 2026-04-18 11:26 | 16.13546 | -22.89023 | 55 ft | 2 kts | 215° |
| 2026-04-18 11:26 | 16.13553 | -22.89018 | 52 ft | 0 kts | 199° |
| 2026-04-18 11:27 | 16.13553 | -22.89019 | 52 ft | 1 kts | 199° |
| 2026-04-18 11:27 | 16.13474 | -22.89014 | 55 ft | 15 kts | 130° |
| 2026-04-18 11:27 | 16.13442 | -22.88967 | 60 ft | 11 kts | 160° |
| 2026-04-18 11:27 | 16.13262 | -22.89006 | 57 ft | 25 kts | 197° |
| 2026-04-18 11:28 | 16.13100 | -22.89057 | 59 ft | 24 kts | 196° |
| 2026-04-18 11:28 | 16.13005 | -22.89087 | 56 ft | 23 kts | 197° |
| 2026-04-18 11:28 | 16.12877 | -22.89162 | 61 ft | 20 kts | 194° |
| 2026-04-18 11:28 | 16.12845 | -22.89144 | 63 ft | 3 kts | 51° |
| 2026-04-18 11:29 | 16.12865 | -22.89130 | 66 ft | 4 kts | 22° |
| 2026-04-18 11:29 | 16.12974 | -22.89095 | 62 ft | 48 kts | 17° |
| 2026-04-18 11:29 | 16.13550 | -22.88917 | 56 ft | 122 kts | 17° |
| 2026-04-18 11:29 | 16.14537 | -22.88613 | 238 ft | 160 kts | 16° |
| 2026-04-18 11:30 | 16.15515 | -22.88315 | 1310 ft | 135 kts | 16° |
| 2026-04-18 11:30 | 16.16370 | -22.88055 | 1818 ft | 136 kts | 17° |
| 2026-04-18 11:30 | 16.17447 | -22.87658 | 1641 ft | 184 kts | 20° |
| 2026-04-18 11:30 | 16.18716 | -22.87160 | 1840 ft | 207 kts | 20° |
| 2026-04-18 11:31 | 16.20150 | -22.86605 | 2119 ft | 232 kts | 19° |
| 2026-04-18 11:31 | 16.21733 | -22.86003 | 2571 ft | 250 kts | 19° |
| 2026-04-18 11:31 | 16.23385 | -22.85391 | 3320 ft | 254 kts | 18° |
| 2026-04-18 11:31 | 16.25066 | -22.84777 | 4095 ft | 258 kts | 19° |
| 2026-04-18 11:32 | 16.26785 | -22.84154 | 4791 ft | 264 kts | 19° |
| 2026-04-18 11:32 | 16.28540 | -22.83521 | 5459 ft | 270 kts | 19° |
| 2026-04-18 11:32 | 16.30328 | -22.82878 | 6103 ft | 275 kts | 19° |
| 2026-04-18 11:32 | 16.32160 | -22.82221 | 6747 ft | 280 kts | 20° |
| 2026-04-18 11:33 | 16.34017 | -22.81555 | 7389 ft | 284 kts | 20° |
| 2026-04-18 11:33 | 16.35901 | -22.80879 | 8025 ft | 288 kts | 20° |
| 2026-04-18 11:33 | 16.37807 | -22.80199 | 8643 ft | 292 kts | 20° |
| 2026-04-18 11:33 | 16.39738 | -22.79511 | 9250 ft | 295 kts | 20° |
| 2026-04-18 11:34 | 16.41692 | -22.78813 | 9840 ft | 298 kts | 20° |
| 2026-04-18 11:34 | 16.43694 | -22.78093 | 10143 ft | 315 kts | 19° |
| 2026-04-18 11:34 | 16.45833 | -22.77324 | 10276 ft | 335 kts | 19° |
| 2026-04-18 11:34 | 16.48061 | -22.76525 | 10547 ft | 349 kts | 19° |
| 2026-04-18 11:35 | 16.50374 | -22.75698 | 11073 ft | 354 kts | 19° |
| 2026-04-18 11:35 | 16.52722 | -22.74859 | 11646 ft | 358 kts | 19° |
| 2026-04-18 11:35 | 16.55096 | -22.74013 | 12217 ft | 362 kts | 18° |
| 2026-04-18 11:35 | 16.57494 | -22.73157 | 12792 ft | 366 kts | 18° |
| 2026-04-18 11:36 | 16.59914 | -22.72286 | 13333 ft | 371 kts | 18° |
| 2026-04-18 11:36 | 16.62366 | -22.71404 | 13862 ft | 375 kts | 18° |
| 2026-04-18 11:36 | 16.64839 | -22.70515 | 14393 ft | 378 kts | 18° |
| 2026-04-18 11:36 | 16.67343 | -22.69615 | 14909 ft | 382 kts | 17° |
| 2026-04-18 11:37 | 16.69873 | -22.68705 | 15420 ft | 386 kts | 17° |
| 2026-04-18 11:37 | 16.72429 | -22.67790 | 15907 ft | 391 kts | 17° |
| 2026-04-18 11:37 | 16.75015 | -22.66863 | 16395 ft | 395 kts | 17° |
| 2026-04-18 11:37 | 16.77621 | -22.65927 | 16884 ft | 398 kts | 16° |
| 2026-04-18 11:38 | 16.80254 | -22.64981 | 17343 ft | 402 kts | 16° |
| 2026-04-18 11:38 | 16.82913 | -22.64030 | 17799 ft | 406 kts | 15° |
| 2026-04-18 11:38 | 16.85597 | -22.63065 | 18252 ft | 410 kts | 15° |
| 2026-04-18 11:38 | 16.88339 | -22.62075 | 18699 ft | 413 kts | 15° |
| 2026-04-18 11:39 | 16.91028 | -22.61105 | 19150 ft | 416 kts | 15° |
| 2026-04-18 11:39 | 16.93775 | -22.60115 | 19592 ft | 419 kts | 15° |
| 2026-04-18 11:39 | 16.96538 | -22.59108 | 20018 ft | 422 kts | 15° |
| 2026-04-18 11:39 | 16.99318 | -22.58083 | 20445 ft | 425 kts | 15° |
| 2026-04-18 11:40 | 17.02112 | -22.57044 | 20849 ft | 428 kts | 15° |
| 2026-04-18 11:40 | 17.04927 | -22.55998 | 21250 ft | 431 kts | 15° |
| 2026-04-18 11:40 | 17.07758 | -22.54947 | 21642 ft | 434 kts | 15° |
| 2026-04-18 11:40 | 17.10619 | -22.53885 | 22018 ft | 437 kts | 15° |
| 2026-04-18 11:41 | 17.13489 | -22.52820 | 22388 ft | 439 kts | 15° |
| 2026-04-18 11:41 | 17.16380 | -22.51748 | 22766 ft | 442 kts | 15° |
| 2026-04-18 11:41 | 17.19281 | -22.50675 | 23124 ft | 444 kts | 15° |
| 2026-04-18 11:41 | 17.22204 | -22.49596 | 23473 ft | 447 kts | 15° |
| 2026-04-18 11:42 | 17.25140 | -22.48511 | 23812 ft | 449 kts | 15° |
| 2026-04-18 11:42 | 17.28093 | -22.47418 | 24154 ft | 451 kts | 14° |
| 2026-04-18 11:42 | 17.31060 | -22.46319 | 24479 ft | 454 kts | 14° |
| 2026-04-18 11:42 | 17.34045 | -22.45213 | 24800 ft | 456 kts | 14° |
| 2026-04-18 11:43 | 17.37044 | -22.44103 | 25139 ft | 458 kts | 13° |
| 2026-04-18 11:43 | 17.40048 | -22.42990 | 25480 ft | 459 kts | 13° |
| 2026-04-18 11:43 | 17.43061 | -22.41871 | 25792 ft | 461 kts | 13° |
| 2026-04-18 11:43 | 17.46087 | -22.40744 | 26098 ft | 462 kts | 13° |
| 2026-04-18 11:44 | 17.49119 | -22.39616 | 26396 ft | 464 kts | 13° |
| 2026-04-18 11:44 | 17.52164 | -22.38486 | 26677 ft | 466 kts | 12° |
| 2026-04-18 11:44 | 17.55226 | -22.37347 | 26973 ft | 467 kts | 12° |
| 2026-04-18 11:44 | 17.58292 | -22.36206 | 27252 ft | 468 kts | 12° |
| 2026-04-18 11:45 | 17.61369 | -22.35062 | 27529 ft | 470 kts | 11° |
| 2026-04-18 11:45 | 17.64459 | -22.33911 | 27819 ft | 472 kts | 11° |
| 2026-04-18 11:45 | 17.67556 | -22.32760 | 28100 ft | 473 kts | 11° |
| 2026-04-18 11:45 | 17.70669 | -22.31604 | 28368 ft | 475 kts | 11° |
| 2026-04-18 11:46 | 17.73743 | -22.30459 | 28638 ft | 476 kts | 11° |
| 2026-04-18 11:46 | 17.76869 | -22.29295 | 28882 ft | 478 kts | 10° |
| 2026-04-18 11:46 | 17.80007 | -22.28127 | 29124 ft | 479 kts | 10° |
| 2026-04-18 11:46 | 17.83153 | -22.26953 | 29356 ft | 480 kts | 10° |
| 2026-04-18 11:47 | 17.86297 | -22.25779 | 29587 ft | 481 kts | 10° |
| 2026-04-18 11:47 | 17.89442 | -22.24513 | 29784 ft | 489 kts | 14° |
| 2026-04-18 11:47 | 17.92519 | -22.22953 | 30007 ft | 495 kts | 18° |
| 2026-04-18 11:47 | 17.95541 | -22.21170 | 30199 ft | 501 kts | 21° |
| 2026-04-18 11:48 | 17.98511 | -22.19244 | 30465 ft | 502 kts | 23° |
| 2026-04-18 11:48 | 18.01454 | -22.17265 | 30746 ft | 502 kts | 23° |
| 2026-04-18 11:48 | 18.04400 | -22.15298 | 31007 ft | 501 kts | 22° |
| 2026-04-18 11:48 | 18.07362 | -22.13381 | 31271 ft | 499 kts | 21° |
| 2026-04-18 11:49 | 18.10335 | -22.11518 | 31532 ft | 497 kts | 20° |
| 2026-04-18 11:49 | 18.13323 | -22.09688 | 31790 ft | 496 kts | 20° |
| 2026-04-18 11:49 | 18.16309 | -22.07882 | 32038 ft | 496 kts | 20° |
| 2026-04-18 11:49 | 18.19300 | -22.06073 | 32294 ft | 495 kts | 19° |
| 2026-04-18 11:50 | 18.22278 | -22.04260 | 32545 ft | 496 kts | 20° |
| 2026-04-18 11:50 | 18.25257 | -22.02428 | 32804 ft | 496 kts | 20° |
| 2026-04-18 11:50 | 18.28229 | -22.00589 | 33062 ft | 495 kts | 20° |
| 2026-04-18 11:50 | 18.31193 | -21.98748 | 33310 ft | 495 kts | 20° |
| 2026-04-18 11:51 | 18.34155 | -21.96904 | 33560 ft | 494 kts | 20° |
| 2026-04-18 11:51 | 18.37118 | -21.95067 | 33806 ft | 494 kts | 20° |
| 2026-04-18 11:51 | 18.40075 | -21.93237 | 34050 ft | 493 kts | 19° |
| 2026-04-18 11:51 | 18.43032 | -21.91405 | 34288 ft | 493 kts | 20° |
| 2026-04-18 11:52 | 18.45989 | -21.89573 | 34546 ft | 492 kts | 19° |
| 2026-04-18 11:52 | 18.48931 | -21.87754 | 34788 ft | 490 kts | 19° |
| 2026-04-18 11:52 | 18.51877 | -21.85937 | 34921 ft | 490 kts | 19° |
| 2026-04-18 11:52 | 18.54807 | -21.84127 | 34947 ft | 487 kts | 19° |
| 2026-04-18 11:53 | 18.60630 | -21.80512 | 34944 ft | 486 kts | 19° |
| 2026-04-18 11:53 | 18.66464 | -21.76894 | 34945 ft | 486 kts | 19° |
| 2026-04-18 11:54 | 18.72300 | -21.73271 | 34944 ft | 487 kts | 19° |
| 2026-04-18 11:54 | 18.78130 | -21.69645 | 34931 ft | 486 kts | 19° |
| 2026-04-18 11:55 | 18.83957 | -21.66015 | 34929 ft | 486 kts | 19° |
| 2026-04-18 11:55 | 18.89786 | -21.62385 | 34935 ft | 487 kts | 19° |
| 2026-04-18 11:56 | 18.95623 | -21.58740 | 34931 ft | 487 kts | 19° |
| 2026-04-18 11:56 | 19.01461 | -21.55094 | 34928 ft | 487 kts | 19° |
| 2026-04-18 11:57 | 19.07302 | -21.51454 | 34924 ft | 488 kts | 19° |
| 2026-04-18 11:57 | 19.13115 | -21.47831 | 34926 ft | 488 kts | 19° |
| 2026-04-18 11:58 | 19.18962 | -21.44182 | 34928 ft | 488 kts | 19° |
| 2026-04-18 11:58 | 19.24808 | -21.40511 | 34928 ft | 489 kts | 19° |
| 2026-04-18 11:59 | 19.30660 | -21.36846 | 34930 ft | 489 kts | 19° |
| 2026-04-18 11:59 | 19.36510 | -21.33182 | 34933 ft | 489 kts | 19° |
| 2026-04-18 12:00 | 19.42370 | -21.29508 | 34926 ft | 489 kts | 19° |
| 2026-04-18 12:00 | 19.48230 | -21.25827 | 34929 ft | 490 kts | 19° |
| 2026-04-18 12:01 | 19.57035 | -21.20291 | 34931 ft | 491 kts | 19° |
| 2026-04-18 12:02 | 19.62907 | -21.16595 | 34935 ft | 491 kts | 19° |
| 2026-04-18 12:02 | 19.68788 | -21.12886 | 34941 ft | 491 kts | 19° |
| 2026-04-18 12:03 | 19.74661 | -21.09180 | 34941 ft | 491 kts | 19° |
| 2026-04-18 12:03 | 19.80544 | -21.05473 | 34950 ft | 491 kts | 19° |
| 2026-04-18 12:04 | 19.86378 | -21.01790 | 34948 ft | 491 kts | 19° |
| 2026-04-18 12:04 | 19.92238 | -20.98080 | 34950 ft | 490 kts | 19° |
| 2026-04-18 12:05 | 19.98102 | -20.94369 | 34943 ft | 490 kts | 19° |
| 2026-04-18 12:05 | 20.03962 | -20.90670 | 34928 ft | 490 kts | 20° |
| 2026-04-18 12:06 | 20.09821 | -20.86965 | 34926 ft | 490 kts | 20° |
| 2026-04-18 12:06 | 20.15676 | -20.83243 | 34929 ft | 490 kts | 20° |
| 2026-04-18 12:07 | 20.21535 | -20.79521 | 34928 ft | 490 kts | 20° |
| 2026-04-18 12:07 | 20.27392 | -20.75796 | 34927 ft | 490 kts | 20° |
| 2026-04-18 12:08 | 20.33242 | -20.72067 | 34929 ft | 490 kts | 20° |
| 2026-04-18 12:08 | 20.39099 | -20.68345 | 34931 ft | 490 kts | 20° |
| 2026-04-18 12:09 | 20.44951 | -20.64613 | 34931 ft | 490 kts | 20° |
| 2026-04-18 12:09 | 20.50803 | -20.60873 | 34934 ft | 490 kts | 20° |
| 2026-04-18 12:10 | 20.56660 | -20.57129 | 34937 ft | 490 kts | 21° |
| 2026-04-18 12:10 | 20.62504 | -20.53384 | 34938 ft | 490 kts | 21° |
| 2026-04-18 12:11 | 20.68343 | -20.49634 | 34938 ft | 489 kts | 21° |
| 2026-04-18 12:11 | 20.74176 | -20.45903 | 34939 ft | 489 kts | 21° |
| 2026-04-18 12:12 | 20.79960 | -20.42184 | 34942 ft | 488 kts | 21° |
| 2026-04-18 12:12 | 20.85782 | -20.38443 | 34929 ft | 488 kts | 21° |
| 2026-04-18 12:13 | 20.91607 | -20.34705 | 34930 ft | 488 kts | 21° |
| 2026-04-18 12:13 | 20.97422 | -20.30953 | 34933 ft | 488 kts | 22° |
| 2026-04-18 12:14 | 21.03241 | -20.27199 | 34930 ft | 488 kts | 22° |
| 2026-04-18 12:14 | 21.09064 | -20.23441 | 34934 ft | 488 kts | 22° |
| 2026-04-18 12:15 | 21.14883 | -20.19690 | 34934 ft | 488 kts | 22° |
| 2026-04-18 12:15 | 21.20704 | -20.15935 | 34934 ft | 488 kts | 22° |
| 2026-04-18 12:16 | 21.26521 | -20.12171 | 34935 ft | 488 kts | 23° |
| 2026-04-18 12:16 | 21.31355 | -20.09041 | 34938 ft | 488 kts | 23° |
| 2026-04-18 12:17 | 21.37166 | -20.05278 | 34935 ft | 488 kts | 23° |
| 2026-04-18 12:17 | 21.42967 | -20.01515 | 34935 ft | 487 kts | 24° |
| 2026-04-18 12:18 | 21.48769 | -19.97754 | 34931 ft | 487 kts | 24° |
| 2026-04-18 12:18 | 21.54567 | -19.93983 | 34933 ft | 487 kts | 24° |
| 2026-04-18 12:19 | 21.60358 | -19.90217 | 34928 ft | 487 kts | 24° |
| 2026-04-18 12:19 | 21.66158 | -19.86444 | 34923 ft | 487 kts | 24° |
| 2026-04-18 12:20 | 21.71951 | -19.82672 | 34926 ft | 487 kts | 24° |
| 2026-04-18 12:20 | 21.77733 | -19.78898 | 34932 ft | 486 kts | 24° |
| 2026-04-18 12:21 | 21.83513 | -19.75115 | 34929 ft | 486 kts | 24° |
| 2026-04-18 12:21 | 21.89259 | -19.71362 | 34928 ft | 486 kts | 24° |
| 2026-04-18 12:22 | 21.95086 | -19.67563 | 34926 ft | 486 kts | 24° |
| 2026-04-18 12:22 | 22.00862 | -19.63779 | 34922 ft | 486 kts | 24° |
| 2026-04-18 12:23 | 22.06594 | -19.60018 | 34926 ft | 486 kts | 25° |
| 2026-04-18 12:23 | 22.12371 | -19.56226 | 34928 ft | 486 kts | 25° |
| 2026-04-18 12:24 | 22.18137 | -19.52439 | 34930 ft | 485 kts | 25° |
| 2026-04-18 12:24 | 22.23907 | -19.48654 | 34930 ft | 485 kts | 25° |
| 2026-04-18 12:25 | 22.29675 | -19.44864 | 34927 ft | 485 kts | 25° |
| 2026-04-18 12:25 | 22.35439 | -19.41065 | 34924 ft | 485 kts | 25° |
| 2026-04-18 12:26 | 22.41200 | -19.37261 | 34926 ft | 485 kts | 25° |
| 2026-04-18 12:26 | 22.46961 | -19.33454 | 34924 ft | 485 kts | 25° |
| 2026-04-18 12:27 | 22.52711 | -19.29656 | 34922 ft | 485 kts | 25° |
| 2026-04-18 12:27 | 22.58471 | -19.25857 | 34920 ft | 484 kts | 25° |
| 2026-04-18 12:28 | 22.64211 | -19.22055 | 34920 ft | 484 kts | 25° |
| 2026-04-18 12:28 | 22.69952 | -19.18254 | 34916 ft | 484 kts | 25° |
| 2026-04-18 12:29 | 22.75661 | -19.14475 | 34914 ft | 484 kts | 25° |
| 2026-04-18 12:29 | 22.81405 | -19.10661 | 34920 ft | 484 kts | 26° |
| 2026-04-18 12:30 | 22.87137 | -19.06846 | 34918 ft | 484 kts | 26° |
| 2026-04-18 12:30 | 22.92868 | -19.03027 | 34917 ft | 483 kts | 26° |
| 2026-04-18 12:31 | 22.98596 | -18.99212 | 34918 ft | 483 kts | 26° |
| 2026-04-18 12:31 | 23.04318 | -18.95402 | 34914 ft | 482 kts | 26° |
| 2026-04-18 12:32 | 23.10042 | -18.91585 | 34913 ft | 483 kts | 26° |
| 2026-04-18 12:32 | 23.15768 | -18.87761 | 34915 ft | 483 kts | 26° |
| 2026-04-18 12:33 | 23.21497 | -18.83937 | 34915 ft | 483 kts | 26° |
| 2026-04-18 12:33 | 23.27219 | -18.80104 | 34912 ft | 483 kts | 26° |
| 2026-04-18 12:34 | 23.32938 | -18.76265 | 34910 ft | 483 kts | 27° |
| 2026-04-18 12:34 | 23.38665 | -18.72428 | 34910 ft | 483 kts | 27° |
| 2026-04-18 12:35 | 23.44392 | -18.68587 | 34909 ft | 484 kts | 27° |
| 2026-04-18 12:35 | 23.50119 | -18.64741 | 34909 ft | 484 kts | 27° |
| 2026-04-18 12:36 | 23.55850 | -18.60890 | 34911 ft | 484 kts | 27° |
| 2026-04-18 12:36 | 23.61536 | -18.57049 | 34912 ft | 484 kts | 27° |
| 2026-04-18 12:37 | 23.67266 | -18.53186 | 34907 ft | 484 kts | 27° |
| 2026-04-18 12:37 | 23.73039 | -18.49303 | 34907 ft | 484 kts | 27° |
| 2026-04-18 12:38 | 23.78729 | -18.45462 | 34906 ft | 484 kts | 27° |
| 2026-04-18 12:38 | 23.84454 | -18.41584 | 34906 ft | 484 kts | 27° |
| 2026-04-18 12:39 | 23.90183 | -18.37703 | 34914 ft | 484 kts | 27° |
| 2026-04-18 12:39 | 23.95902 | -18.33826 | 34911 ft | 484 kts | 28° |
| 2026-04-18 12:40 | 24.01622 | -18.29942 | 34908 ft | 484 kts | 28° |
| 2026-04-18 12:40 | 24.07346 | -18.26057 | 34906 ft | 484 kts | 28° |
| 2026-04-18 12:41 | 24.13074 | -18.22177 | 34905 ft | 484 kts | 28° |
| 2026-04-18 12:41 | 24.18802 | -18.18283 | 34906 ft | 485 kts | 28° |
| 2026-04-18 12:42 | 24.24529 | -18.14376 | 34907 ft | 485 kts | 28° |
| 2026-04-18 12:42 | 24.30250 | -18.10469 | 34912 ft | 484 kts | 28° |
| 2026-04-18 12:43 | 24.35974 | -18.06570 | 34913 ft | 484 kts | 28° |
| 2026-04-18 12:43 | 24.41690 | -18.02665 | 34912 ft | 484 kts | 28° |
| 2026-04-18 12:44 | 24.47406 | -17.98754 | 34909 ft | 484 kts | 28° |
| 2026-04-18 12:44 | 24.53124 | -17.94838 | 34910 ft | 484 kts | 28° |
| 2026-04-18 12:45 | 24.58801 | -17.90942 | 34913 ft | 484 kts | 28° |
| 2026-04-18 12:45 | 24.64511 | -17.87016 | 34914 ft | 484 kts | 28° |
| 2026-04-18 12:46 | 24.70220 | -17.83092 | 34916 ft | 484 kts | 28° |
| 2026-04-18 12:46 | 24.75930 | -17.79176 | 34921 ft | 484 kts | 28° |
| 2026-04-18 12:47 | 24.81635 | -17.75247 | 34922 ft | 484 kts | 28° |
| 2026-04-18 12:47 | 24.87335 | -17.71313 | 34925 ft | 483 kts | 28° |
| 2026-04-18 12:48 | 24.93032 | -17.67377 | 34923 ft | 483 kts | 29° |
| 2026-04-18 12:48 | 24.98720 | -17.63438 | 34922 ft | 483 kts | 29° |
| 2026-04-18 12:49 | 25.04417 | -17.59501 | 34925 ft | 483 kts | 29° |
| 2026-04-18 12:49 | 25.10108 | -17.55566 | 34922 ft | 483 kts | 29° |
| 2026-04-18 12:50 | 25.15802 | -17.51622 | 34922 ft | 483 kts | 29° |
| 2026-04-18 12:50 | 25.21480 | -17.47665 | 34926 ft | 483 kts | 29° |
| 2026-04-18 12:51 | 25.27125 | -17.43733 | 34936 ft | 483 kts | 29° |
| 2026-04-18 12:51 | 25.32800 | -17.39776 | 34931 ft | 483 kts | 29° |
| 2026-04-18 12:52 | 25.38477 | -17.35817 | 34933 ft | 482 kts | 29° |
| 2026-04-18 12:52 | 25.44155 | -17.31870 | 34935 ft | 482 kts | 29° |
| 2026-04-18 12:53 | 25.49826 | -17.27915 | 34935 ft | 482 kts | 30° |
| 2026-04-18 12:53 | 25.55484 | -17.23945 | 34932 ft | 481 kts | 30° |
| 2026-04-18 12:54 | 25.61138 | -17.19977 | 34931 ft | 481 kts | 29° |
| 2026-04-18 12:54 | 25.66794 | -17.16011 | 34922 ft | 481 kts | 30° |
| 2026-04-18 12:55 | 25.72442 | -17.12040 | 34921 ft | 481 kts | 29° |
| 2026-04-18 12:55 | 25.78097 | -17.08078 | 34922 ft | 481 kts | 29° |
| 2026-04-18 12:56 | 25.83750 | -17.04115 | 34923 ft | 481 kts | 29° |
| 2026-04-18 12:56 | 25.89398 | -17.00134 | 34925 ft | 481 kts | 30° |
| 2026-04-18 12:57 | 25.95046 | -16.96140 | 34925 ft | 481 kts | 30° |
| 2026-04-18 12:57 | 26.00693 | -16.92151 | 34925 ft | 481 kts | 30° |
| 2026-04-18 12:58 | 26.06300 | -16.88188 | 34935 ft | 481 kts | 30° |
| 2026-04-18 12:58 | 26.11944 | -16.84194 | 34933 ft | 481 kts | 30° |
| 2026-04-18 12:59 | 26.17582 | -16.80196 | 34940 ft | 480 kts | 30° |
| 2026-04-18 12:59 | 26.23214 | -16.76205 | 34943 ft | 480 kts | 30° |
| 2026-04-18 13:00 | 26.28854 | -16.72216 | 34934 ft | 480 kts | 30° |
| 2026-04-18 13:00 | 26.34489 | -16.68229 | 34935 ft | 479 kts | 30° |
| 2026-04-18 13:01 | 26.40115 | -16.64241 | 34941 ft | 479 kts | 30° |
| 2026-04-18 13:01 | 26.45742 | -16.60239 | 34942 ft | 480 kts | 30° |
| 2026-04-18 13:02 | 26.51367 | -16.56229 | 34942 ft | 480 kts | 30° |
| 2026-04-18 13:02 | 26.56990 | -16.52224 | 34945 ft | 479 kts | 30° |
| 2026-04-18 13:03 | 26.62615 | -16.48220 | 34950 ft | 479 kts | 30° |
| 2026-04-18 13:03 | 26.71035 | -16.42213 | 34948 ft | 479 kts | 30° |
| 2026-04-18 13:04 | 26.76645 | -16.38201 | 34954 ft | 478 kts | 30° |
| 2026-04-18 13:04 | 26.82218 | -16.34210 | 34952 ft | 478 kts | 30° |
| 2026-04-18 13:05 | 26.87853 | -16.30163 | 34952 ft | 478 kts | 30° |
| 2026-04-18 13:05 | 26.93413 | -16.26167 | 34955 ft | 478 kts | 30° |
| 2026-04-18 13:06 | 26.99007 | -16.22144 | 34953 ft | 477 kts | 31° |
| 2026-04-18 13:06 | 27.04592 | -16.18119 | 34953 ft | 477 kts | 31° |
| 2026-04-18 13:07 | 27.10170 | -16.14094 | 34958 ft | 476 kts | 31° |
| 2026-04-18 13:07 | 27.14801 | -16.10751 | 34959 ft | 476 kts | 31° |
| 2026-04-18 13:08 | 27.20361 | -16.06727 | 34965 ft | 475 kts | 31° |
| 2026-04-18 13:08 | 27.25916 | -16.02698 | 34971 ft | 475 kts | 31° |
| 2026-04-18 13:09 | 27.31462 | -15.98678 | 34974 ft | 474 kts | 31° |
| 2026-04-18 13:09 | 27.36994 | -15.94667 | 34975 ft | 473 kts | 31° |
| 2026-04-18 13:10 | 27.42525 | -15.90646 | 34974 ft | 473 kts | 31° |
| 2026-04-18 13:10 | 27.48049 | -15.86630 | 34970 ft | 473 kts | 31° |
| 2026-04-18 13:11 | 27.53568 | -15.82610 | 34971 ft | 472 kts | 31° |
| 2026-04-18 13:11 | 27.59073 | -15.78591 | 34973 ft | 471 kts | 31° |
| 2026-04-18 13:12 | 27.64579 | -15.74566 | 34971 ft | 471 kts | 31° |
| 2026-04-18 13:12 | 27.70077 | -15.70542 | 34968 ft | 471 kts | 31° |
| 2026-04-18 13:13 | 27.75571 | -15.66519 | 34967 ft | 471 kts | 31° |
| 2026-04-18 13:13 | 27.81032 | -15.62527 | 34968 ft | 470 kts | 31° |
| 2026-04-18 13:14 | 27.86516 | -15.58508 | 34968 ft | 470 kts | 31° |
| 2026-04-18 13:14 | 27.92001 | -15.54469 | 34965 ft | 470 kts | 31° |
| 2026-04-18 13:15 | 27.97480 | -15.50437 | 34964 ft | 470 kts | 31° |
| 2026-04-18 13:15 | 28.02964 | -15.46399 | 34965 ft | 470 kts | 32° |
| 2026-04-18 13:16 | 28.08610 | -15.42715 | 34970 ft | 467 kts | 20° |
| 2026-04-18 13:16 | 28.14762 | -15.40447 | 34970 ft | 465 kts | 14° |
| 2026-04-18 13:17 | 28.20938 | -15.38290 | 34968 ft | 465 kts | 14° |
| 2026-04-18 13:17 | 28.27117 | -15.36122 | 34968 ft | 465 kts | 14° |
| 2026-04-18 13:18 | 28.33296 | -15.33956 | 34973 ft | 465 kts | 15° |
| 2026-04-18 13:18 | 28.39471 | -15.31786 | 34977 ft | 465 kts | 15° |
| 2026-04-18 13:19 | 28.45651 | -15.29617 | 34981 ft | 465 kts | 15° |
| 2026-04-18 13:19 | 28.51827 | -15.27445 | 34983 ft | 464 kts | 14° |
| 2026-04-18 13:20 | 28.58001 | -15.25273 | 34981 ft | 464 kts | 15° |
| 2026-04-18 13:20 | 28.64175 | -15.23097 | 34978 ft | 465 kts | 15° |
| 2026-04-18 13:21 | 28.70353 | -15.20916 | 34979 ft | 465 kts | 15° |
| 2026-04-18 13:21 | 28.76528 | -15.18732 | 34983 ft | 465 kts | 15° |
| 2026-04-18 13:22 | 28.82662 | -15.16559 | 34997 ft | 465 kts | 15° |
| 2026-04-18 13:22 | 28.88837 | -15.14373 | 34987 ft | 465 kts | 15° |
| 2026-04-18 13:23 | 28.95048 | -15.12175 | 34986 ft | 464 kts | 15° |
| 2026-04-18 13:23 | 29.01177 | -15.09997 | 34996 ft | 465 kts | 15° |
| 2026-04-18 13:24 | 29.07353 | -15.07797 | 35003 ft | 465 kts | 15° |
| 2026-04-18 13:24 | 29.13519 | -15.05602 | 34994 ft | 464 kts | 15° |
| 2026-04-18 13:25 | 29.19691 | -15.03402 | 34999 ft | 464 kts | 15° |
| 2026-04-18 13:25 | 29.25858 | -15.01201 | 34998 ft | 464 kts | 15° |
| 2026-04-18 13:26 | 29.32020 | -14.98996 | 34997 ft | 464 kts | 15° |
| 2026-04-18 13:26 | 29.38170 | -14.96788 | 34996 ft | 464 kts | 15° |
| 2026-04-18 13:27 | 29.44335 | -14.94581 | 35003 ft | 464 kts | 15° |
| 2026-04-18 13:27 | 29.50490 | -14.92380 | 34985 ft | 463 kts | 15° |
| 2026-04-18 13:28 | 29.56644 | -14.90169 | 34984 ft | 463 kts | 15° |
| 2026-04-18 13:28 | 29.62794 | -14.87960 | 34981 ft | 463 kts | 15° |
| 2026-04-18 13:29 | 29.68941 | -14.85740 | 34988 ft | 463 kts | 15° |
| 2026-04-18 13:29 | 29.75045 | -14.83537 | 34982 ft | 463 kts | 15° |
| 2026-04-18 13:30 | 29.81189 | -14.81322 | 34990 ft | 463 kts | 15° |
| 2026-04-18 13:30 | 29.87332 | -14.79097 | 35001 ft | 463 kts | 15° |
| 2026-04-18 13:31 | 29.93468 | -14.76878 | 35002 ft | 462 kts | 15° |
| 2026-04-18 13:31 | 29.99606 | -14.74661 | 34996 ft | 462 kts | 15° |
| 2026-04-18 13:32 | 30.05737 | -14.72429 | 35001 ft | 462 kts | 16° |
| 2026-04-18 13:32 | 30.11872 | -14.70197 | 34994 ft | 462 kts | 16° |
| 2026-04-18 13:33 | 30.18000 | -14.67969 | 35001 ft | 462 kts | 16° |
| 2026-04-18 13:33 | 30.24125 | -14.65743 | 34997 ft | 461 kts | 16° |
| 2026-04-18 13:34 | 30.30249 | -14.63505 | 35006 ft | 461 kts | 16° |
| 2026-04-18 13:34 | 30.36371 | -14.61264 | 35005 ft | 461 kts | 16° |
| 2026-04-18 13:35 | 30.42495 | -14.59027 | 35004 ft | 461 kts | 16° |
| 2026-04-18 13:35 | 30.48573 | -14.56807 | 35010 ft | 461 kts | 16° |
| 2026-04-18 13:36 | 30.54695 | -14.54566 | 35015 ft | 461 kts | 16° |
| 2026-04-18 13:36 | 30.60808 | -14.52311 | 35022 ft | 461 kts | 16° |
| 2026-04-18 13:37 | 30.66922 | -14.50061 | 35022 ft | 461 kts | 16° |
| 2026-04-18 13:37 | 30.73042 | -14.47817 | 35026 ft | 461 kts | 16° |
| 2026-04-18 13:38 | 30.79158 | -14.45563 | 35031 ft | 461 kts | 16° |
| 2026-04-18 13:38 | 30.85273 | -14.43294 | 35030 ft | 461 kts | 16° |
| 2026-04-18 13:39 | 30.91330 | -14.40812 | 35029 ft | 462 kts | 24° |
| 2026-04-18 13:39 | 30.97146 | -14.37609 | 35027 ft | 462 kts | 24° |
| 2026-04-18 13:40 | 31.02966 | -14.34421 | 35022 ft | 462 kts | 24° |
| 2026-04-18 13:40 | 31.08775 | -14.31222 | 35021 ft | 462 kts | 24° |
| 2026-04-18 13:41 | 31.14584 | -14.28009 | 35021 ft | 462 kts | 24° |
| 2026-04-18 13:41 | 31.20394 | -14.24793 | 35024 ft | 462 kts | 24° |
| 2026-04-18 13:42 | 31.26215 | -14.21570 | 35026 ft | 463 kts | 24° |
| 2026-04-18 13:42 | 31.32025 | -14.18340 | 35027 ft | 463 kts | 24° |
| 2026-04-18 13:43 | 31.37841 | -14.15105 | 35028 ft | 463 kts | 24° |
| 2026-04-18 13:43 | 31.43621 | -14.11896 | 35030 ft | 463 kts | 24° |
| 2026-04-18 13:44 | 31.49439 | -14.08666 | 35034 ft | 463 kts | 24° |
| 2026-04-18 13:44 | 31.55261 | -14.05425 | 35039 ft | 463 kts | 24° |
| 2026-04-18 13:45 | 31.61081 | -14.02178 | 35039 ft | 463 kts | 24° |
| 2026-04-18 13:45 | 31.66894 | -13.98921 | 35044 ft | 463 kts | 24° |
| 2026-04-18 13:46 | 31.72704 | -13.95666 | 35045 ft | 462 kts | 24° |
| 2026-04-18 13:46 | 31.78517 | -13.92415 | 35043 ft | 462 kts | 24° |
| 2026-04-18 13:47 | 31.84318 | -13.89156 | 35045 ft | 462 kts | 24° |
| 2026-04-18 13:47 | 31.90122 | -13.85892 | 35045 ft | 462 kts | 24° |
| 2026-04-18 13:48 | 31.95923 | -13.82625 | 35048 ft | 462 kts | 24° |
| 2026-04-18 13:48 | 32.01730 | -13.79357 | 35045 ft | 462 kts | 24° |
| 2026-04-18 13:49 | 32.07530 | -13.76084 | 35042 ft | 462 kts | 24° |
| 2026-04-18 13:49 | 32.13330 | -13.72800 | 35047 ft | 462 kts | 24° |
| 2026-04-18 13:50 | 32.19125 | -13.69510 | 35049 ft | 462 kts | 24° |
| 2026-04-18 13:50 | 32.24883 | -13.66249 | 35051 ft | 462 kts | 24° |
| 2026-04-18 13:51 | 32.30714 | -13.62943 | 35050 ft | 462 kts | 24° |
| 2026-04-18 13:51 | 32.36471 | -13.59677 | 35051 ft | 462 kts | 24° |
| 2026-04-18 13:52 | 32.42261 | -13.56381 | 35051 ft | 462 kts | 24° |
| 2026-04-18 13:52 | 32.48086 | -13.53050 | 35051 ft | 462 kts | 24° |
| 2026-04-18 13:53 | 32.53866 | -13.49741 | 35051 ft | 462 kts | 24° |
| 2026-04-18 13:53 | 32.59655 | -13.46440 | 35052 ft | 461 kts | 24° |
| 2026-04-18 13:54 | 32.65396 | -13.43157 | 35050 ft | 461 kts | 24° |
| 2026-04-18 13:54 | 32.71179 | -13.39840 | 35050 ft | 461 kts | 24° |
| 2026-04-18 13:55 | 32.76949 | -13.36515 | 35052 ft | 461 kts | 24° |
| 2026-04-18 13:55 | 32.82726 | -13.33186 | 35060 ft | 461 kts | 24° |
| 2026-04-18 13:56 | 32.88505 | -13.29870 | 35059 ft | 461 kts | 24° |
| 2026-04-18 13:56 | 32.94280 | -13.26549 | 35067 ft | 461 kts | 24° |
| 2026-04-18 13:57 | 33.00054 | -13.23208 | 35064 ft | 461 kts | 24° |
| 2026-04-18 13:57 | 33.04847 | -13.20430 | 35067 ft | 461 kts | 24° |
| 2026-04-18 13:58 | 33.10617 | -13.17091 | 35068 ft | 461 kts | 24° |
| 2026-04-18 13:58 | 33.16387 | -13.13746 | 35065 ft | 461 kts | 24° |
| 2026-04-18 13:59 | 33.22156 | -13.10396 | 35071 ft | 461 kts | 24° |
| 2026-04-18 13:59 | 33.27924 | -13.07044 | 35063 ft | 461 kts | 24° |
| 2026-04-18 14:00 | 33.33685 | -13.03687 | 35072 ft | 461 kts | 24° |
| 2026-04-18 14:00 | 33.39445 | -13.00313 | 35062 ft | 461 kts | 24° |
| 2026-04-18 14:01 | 33.45202 | -12.96943 | 35068 ft | 461 kts | 24° |
| 2026-04-18 14:01 | 33.50964 | -12.93573 | 35069 ft | 461 kts | 24° |
| 2026-04-18 14:02 | 33.56726 | -12.90203 | 35067 ft | 460 kts | 24° |
| 2026-04-18 14:02 | 33.62483 | -12.86825 | 35069 ft | 461 kts | 24° |
| 2026-04-18 14:03 | 33.68233 | -12.83450 | 35075 ft | 460 kts | 24° |
| 2026-04-18 14:03 | 33.73984 | -12.80061 | 35070 ft | 460 kts | 24° |
| 2026-04-18 14:04 | 33.79723 | -12.76670 | 35065 ft | 460 kts | 24° |
| 2026-04-18 14:04 | 33.85424 | -12.73302 | 35070 ft | 459 kts | 24° |
| 2026-04-18 14:05 | 33.91167 | -12.69912 | 35063 ft | 460 kts | 24° |
| 2026-04-18 14:05 | 33.96901 | -12.66514 | 35059 ft | 459 kts | 24° |
| 2026-04-18 14:06 | 34.02635 | -12.63107 | 35061 ft | 459 kts | 24° |
| 2026-04-18 14:06 | 34.08360 | -12.59711 | 35062 ft | 459 kts | 24° |
| 2026-04-18 14:07 | 34.14087 | -12.56306 | 35056 ft | 459 kts | 24° |
| 2026-04-18 14:07 | 34.19812 | -12.52899 | 35059 ft | 458 kts | 24° |